createdAt,value
2023-04-23T00:00:35.531Z,94538.00
2023-04-23T00:01:35.607Z,94536.00
2023-04-23T00:02:35.782Z,94534.00
2023-04-23T00:03:35.887Z,94536.00
2023-04-23T00:04:35.825Z,94536.00
2023-04-23T00:05:35.723Z,94536.00
2023-04-23T00:06:35.754Z,94538.00
2023-04-23T00:07:35.789Z,94538.00
2023-04-23T00:08:35.804Z,94538.00
2023-04-23T00:09:35.811Z,94536.00
2023-04-23T00:10:35.826Z,94536.00
2023-04-23T00:11:35.847Z,94536.00
2023-04-23T00:12:35.913Z,94536.00
2023-04-23T00:13:35.923Z,94534.00
2023-04-23T00:14:35.969Z,94536.00
2023-04-23T00:15:35.946Z,94536.00
2023-04-23T00:16:36.093Z,94536.00
2023-04-23T00:17:36.028Z,94540.00
2023-04-23T00:18:36.028Z,94536.00
2023-04-23T00:19:36.128Z,94534.00
2023-04-23T00:20:36.049Z,94534.00
2023-04-23T00:21:36.090Z,94534.00
2023-04-23T00:22:36.135Z,94534.00
2023-04-23T00:23:36.143Z,94532.00
2023-04-23T00:24:36.183Z,94529.00
2023-04-23T00:25:36.173Z,94530.00
2023-04-23T00:26:36.203Z,94527.00
2023-04-23T00:27:36.238Z,94525.00
2023-04-23T00:28:36.269Z,94521.00
2023-04-23T00:29:36.315Z,94525.00
2023-04-23T00:30:36.409Z,94521.00
2023-04-23T00:31:36.344Z,94521.00
2023-04-23T00:32:36.390Z,94515.00
2023-04-23T00:33:36.401Z,94519.00
2023-04-23T00:34:36.436Z,94517.00
2023-04-23T00:35:36.486Z,94519.00
2023-04-23T00:36:36.499Z,94523.00
2023-04-23T00:37:36.568Z,94523.00
2023-04-23T00:38:38.582Z,94525.00
2023-04-23T00:39:36.569Z,94525.00
2023-04-23T00:40:36.562Z,94525.00
2023-04-23T00:41:36.560Z,94525.00
2023-04-23T00:42:36.600Z,94523.00
2023-04-23T00:43:36.630Z,94525.00
2023-04-23T00:44:36.680Z,94523.00
2023-04-23T00:45:36.750Z,94525.00
2023-04-23T00:46:36.732Z,94523.00
2023-04-23T00:47:36.820Z,94521.00
2023-04-23T00:48:36.804Z,94523.00
2023-04-23T00:49:36.863Z,94523.00
2023-04-23T00:50:36.830Z,94523.00
2023-04-23T00:51:36.843Z,94519.00
2023-04-23T00:52:36.875Z,94515.00
2023-04-23T00:53:36.901Z,94519.00
2023-04-23T00:54:36.946Z,94511.00
2023-04-23T00:55:36.992Z,94507.00
2023-04-23T00:56:36.999Z,94509.00
2023-04-23T00:57:37.007Z,94509.00
2023-04-23T00:58:37.069Z,94511.00
2023-04-23T00:59:37.055Z,94513.00
2023-04-23T01:00:37.116Z,94515.00
2023-04-23T01:01:37.190Z,94513.00
2023-04-23T01:02:37.269Z,94511.00
2023-04-23T01:03:37.326Z,94509.00
2023-04-23T01:04:37.169Z,94511.00
2023-04-23T01:05:37.221Z,94509.00
2023-04-23T01:06:37.217Z,94511.00
2023-04-23T01:07:37.263Z,94513.00
2023-04-23T01:08:37.235Z,94511.00
2023-04-23T01:09:37.245Z,94511.00
2023-04-23T01:10:37.328Z,94511.00
2023-04-23T01:11:37.333Z,94511.00
2023-04-23T01:12:37.321Z,94511.00
2023-04-23T01:13:37.312Z,94507.00
2023-04-23T01:14:38.306Z,94509.00
2023-04-23T01:15:37.362Z,94507.00
2023-04-23T01:16:37.397Z,94507.00
2023-04-23T01:17:37.569Z,94503.00
2023-04-23T01:18:37.343Z,94501.00
2023-04-23T01:19:37.408Z,94503.00
2023-04-23T01:20:37.434Z,94505.00
2023-04-23T01:21:37.398Z,94501.00
2023-04-23T01:22:37.422Z,94505.00
2023-04-23T01:23:37.465Z,94503.00
2023-04-23T01:24:37.462Z,94501.00
2023-04-23T01:25:37.498Z,94507.00
2023-04-23T01:26:37.491Z,94507.00
2023-04-23T01:27:37.537Z,94507.00
2023-04-23T01:28:37.548Z,94507.00
2023-04-23T01:29:37.609Z,94507.00
2023-04-23T01:30:37.717Z,94507.00
2023-04-23T01:31:37.670Z,94507.00
2023-04-23T01:32:37.704Z,94505.00
2023-04-23T01:33:37.640Z,94505.00
2023-04-23T01:34:37.673Z,94505.00
2023-04-23T01:35:37.665Z,94503.00
2023-04-23T01:36:37.674Z,94501.00
2023-04-23T01:37:38.048Z,94503.00
2023-04-23T01:38:37.651Z,94503.00
2023-04-23T01:39:37.718Z,94501.00
2023-04-23T01:40:37.679Z,94503.00
2023-04-23T01:41:37.698Z,94503.00
2023-04-23T01:42:37.740Z,94505.00
2023-04-23T01:43:37.763Z,94507.00
2023-04-23T01:44:37.981Z,94509.00
2023-04-23T01:45:37.862Z,94509.00
2023-04-23T01:46:37.872Z,94509.00
2023-04-23T01:47:37.907Z,94511.00
2023-04-23T01:48:37.891Z,94511.00
2023-04-23T01:49:37.918Z,94511.00
2023-04-23T01:50:37.923Z,94509.00
2023-04-23T01:51:37.941Z,94513.00
2023-04-23T01:52:37.985Z,94513.00
2023-04-23T01:53:38.002Z,94511.00
2023-04-23T01:54:38.126Z,94513.00
2023-04-23T01:55:38.032Z,94511.00
2023-04-23T01:56:38.087Z,94513.00
2023-04-23T01:57:38.075Z,94511.00
2023-04-23T01:58:38.099Z,94511.00
2023-04-23T01:59:38.094Z,94513.00
2023-04-23T02:00:38.151Z,94513.00
2023-04-23T02:01:38.179Z,94511.00
2023-04-23T02:02:38.256Z,94511.00
2023-04-23T02:03:38.327Z,94509.00
2023-04-23T02:04:38.315Z,94509.00
2023-04-23T02:05:38.327Z,94511.00
2023-04-23T02:06:38.265Z,94511.00
2023-04-23T02:07:38.273Z,94515.00
2023-04-23T02:08:38.264Z,94513.00
2023-04-23T02:09:38.269Z,94513.00
2023-04-23T02:10:38.287Z,94513.00
2023-04-23T02:11:38.345Z,94513.00
2023-04-23T02:12:38.292Z,94513.00
2023-04-23T02:13:38.258Z,94513.00
2023-04-23T02:14:38.274Z,94513.00
2023-04-23T02:15:38.286Z,94513.00
2023-04-23T02:16:38.238Z,94513.00
2023-04-23T02:17:38.301Z,94509.00
2023-04-23T02:18:38.292Z,94511.00
2023-04-23T02:19:38.288Z,94513.00
2023-04-23T02:20:38.307Z,94513.00
2023-04-23T02:21:38.262Z,94511.00
2023-04-23T02:22:38.300Z,94509.00
2023-04-23T02:23:38.284Z,94513.00
2023-04-23T02:24:38.353Z,94509.00
2023-04-23T02:25:38.279Z,94509.00
2023-04-23T02:26:38.277Z,94507.00
2023-04-23T02:27:38.308Z,94509.00
2023-04-23T02:28:38.249Z,94507.00
2023-04-23T02:29:38.279Z,94507.00
2023-04-23T02:30:38.272Z,94505.00
2023-04-23T02:31:38.286Z,94505.00
2023-04-23T02:32:38.320Z,94503.00
2023-04-23T02:33:38.270Z,94503.00
2023-04-23T02:34:38.378Z,94501.00
2023-04-23T02:35:38.278Z,94501.00
2023-04-23T02:36:38.310Z,94499.00
2023-04-23T02:37:38.282Z,94499.00
2023-04-23T02:38:38.263Z,94499.00
2023-04-23T02:39:38.281Z,94497.00
2023-04-23T02:40:38.293Z,94495.00
2023-04-23T02:41:38.280Z,94499.00
2023-04-23T02:42:38.305Z,94499.00
2023-04-23T02:43:38.290Z,94497.00
2023-04-23T02:44:38.291Z,94497.00
2023-04-23T02:45:38.238Z,94497.00
2023-04-23T02:46:38.311Z,94497.00
2023-04-23T02:47:38.375Z,94493.00
2023-04-23T02:48:38.265Z,94493.00
2023-04-23T02:49:38.260Z,94491.00
2023-04-23T02:50:38.268Z,94489.00
2023-04-23T02:51:38.246Z,94485.00
2023-04-23T02:52:38.252Z,94489.00
2023-04-23T02:53:38.273Z,94489.00
2023-04-23T02:54:38.369Z,94491.00
2023-04-23T02:55:38.234Z,94491.00
2023-04-23T02:56:38.251Z,94491.00
2023-04-23T02:57:38.253Z,94491.00
2023-04-23T02:58:38.262Z,94489.00
2023-04-23T02:59:38.244Z,94489.00
2023-04-23T03:00:38.271Z,94489.00
2023-04-23T03:01:38.254Z,94491.00
2023-04-23T03:02:38.283Z,94491.00
2023-04-23T03:03:38.325Z,94493.00
2023-04-23T03:04:38.266Z,94493.00
2023-04-23T03:05:38.199Z,94493.00
2023-04-23T03:06:38.195Z,94495.00
2023-04-23T03:07:38.190Z,94495.00
2023-04-23T03:08:38.187Z,94495.00
2023-04-23T03:09:38.192Z,94493.00
2023-04-23T03:10:38.221Z,94495.00
2023-04-23T03:11:38.183Z,94495.00
2023-04-23T03:12:38.256Z,94497.00
2023-04-23T03:13:38.179Z,94497.00
2023-04-23T03:14:38.283Z,94493.00
2023-04-23T03:15:38.174Z,94493.00
2023-04-23T03:16:38.221Z,94491.00
2023-04-23T03:17:38.223Z,94495.00
2023-04-23T03:18:38.171Z,94499.00
2023-04-23T03:19:38.176Z,94499.00
2023-04-23T03:20:38.174Z,94501.00
2023-04-23T03:21:38.192Z,94497.00
2023-04-23T03:22:38.149Z,94495.00
2023-04-23T03:23:38.160Z,94497.00
2023-04-23T03:24:38.358Z,94501.00
2023-04-23T03:25:38.145Z,94503.00
2023-04-23T03:26:38.187Z,94503.00
2023-04-23T03:27:40.154Z,94505.00
2023-04-23T03:28:38.130Z,94501.00
2023-04-23T03:29:38.133Z,94503.00
2023-04-23T03:30:38.198Z,94503.00
2023-04-23T03:31:38.160Z,94505.00
2023-04-23T03:32:38.184Z,94509.00
2023-04-23T03:33:38.168Z,94513.00
2023-04-23T03:34:38.215Z,94513.00
2023-04-23T03:35:38.150Z,94513.00
2023-04-23T03:36:38.112Z,94511.00
2023-04-23T03:37:38.118Z,94511.00
2023-04-23T03:38:38.163Z,94511.00
2023-04-23T03:39:38.143Z,94511.00
2023-04-23T03:40:38.129Z,94511.00
2023-04-23T03:41:38.154Z,94513.00
2023-04-23T03:42:38.113Z,94515.00
2023-04-23T03:43:38.131Z,94515.00
2023-04-23T03:44:38.158Z,94513.00
2023-04-23T03:45:38.104Z,94513.00
2023-04-23T03:46:38.244Z,94513.00
2023-04-23T03:47:38.156Z,94519.00
2023-04-23T03:48:38.117Z,94521.00
2023-04-23T03:49:38.120Z,94525.00
2023-04-23T03:50:38.108Z,94525.00
2023-04-23T03:51:38.071Z,94521.00
2023-04-23T03:52:38.121Z,94523.00
2023-04-23T03:53:38.092Z,94521.00
2023-04-23T03:54:38.141Z,94521.00
2023-04-23T03:55:38.097Z,94521.00
2023-04-23T03:56:38.092Z,94523.00
2023-04-23T03:57:38.099Z,94529.00
2023-04-23T03:58:38.085Z,94530.00
2023-04-23T03:59:38.059Z,94529.00
2023-04-23T04:00:38.077Z,94530.00
2023-04-23T04:01:38.073Z,94527.00
2023-04-23T04:02:38.176Z,94523.00
2023-04-23T04:03:38.232Z,94519.00
2023-04-23T04:04:38.216Z,94523.00
2023-04-23T04:05:38.129Z,94523.00
2023-04-23T04:06:38.066Z,94525.00
2023-04-23T04:07:38.073Z,94523.00
2023-04-23T04:08:38.067Z,94523.00
2023-04-23T04:09:38.055Z,94523.00
2023-04-23T04:10:38.029Z,94523.00
2023-04-23T04:11:38.048Z,94523.00
2023-04-23T04:12:38.015Z,94523.00
2023-04-23T04:13:38.037Z,94525.00
2023-04-23T04:14:38.054Z,94523.00
2023-04-23T04:15:38.058Z,94527.00
2023-04-23T04:16:38.011Z,94530.00
2023-04-23T04:17:38.083Z,94527.00
2023-04-23T04:18:38.043Z,94532.00
2023-04-23T04:19:38.007Z,94534.00
2023-04-23T04:20:38.008Z,94534.00
2023-04-23T04:21:38.022Z,94536.00
2023-04-23T04:22:38.035Z,94538.00
2023-04-23T04:23:38.021Z,94538.00
2023-04-23T04:24:38.042Z,94540.00
2023-04-23T04:25:38.028Z,94540.00
2023-04-23T04:26:37.990Z,94538.00
2023-04-23T04:27:38.014Z,94536.00
2023-04-23T04:28:38.003Z,94540.00
2023-04-23T04:29:37.990Z,94538.00
2023-04-23T04:30:38.020Z,94534.00
2023-04-23T04:31:38.057Z,94536.00
2023-04-23T04:32:38.005Z,94534.00
2023-04-23T04:33:37.985Z,94534.00
2023-04-23T04:34:38.014Z,94532.00
2023-04-23T04:35:37.980Z,94534.00
2023-04-23T04:36:37.983Z,94532.00
2023-04-23T04:37:37.962Z,94532.00
2023-04-23T04:38:38.073Z,94532.00
2023-04-23T04:39:37.985Z,94529.00
2023-04-23T04:40:37.976Z,94529.00
2023-04-23T04:41:37.994Z,94527.00
2023-04-23T04:42:37.984Z,94529.00
2023-04-23T04:43:37.955Z,94530.00
2023-04-23T04:44:38.003Z,94530.00
2023-04-23T04:45:37.983Z,94532.00
2023-04-23T04:46:38.049Z,94534.00
2023-04-23T04:47:38.017Z,94534.00
2023-04-23T04:48:37.965Z,94534.00
2023-04-23T04:49:37.991Z,94536.00
2023-04-23T04:50:37.949Z,94536.00
2023-04-23T04:51:37.960Z,94536.00
2023-04-23T04:52:37.974Z,94530.00
2023-04-23T04:53:37.978Z,94530.00
2023-04-23T04:54:37.967Z,94530.00
2023-04-23T04:55:37.972Z,94530.00
2023-04-23T04:56:38.002Z,94527.00
2023-04-23T04:57:37.999Z,94527.00
2023-04-23T04:58:37.975Z,94527.00
2023-04-23T04:59:37.957Z,94525.00
2023-04-23T05:00:37.943Z,94527.00
2023-04-23T05:01:37.980Z,94525.00
2023-04-23T05:02:38.014Z,94527.00
2023-04-23T05:03:38.234Z,94525.00
2023-04-23T05:04:37.974Z,94525.00
2023-04-23T05:05:37.933Z,94527.00
2023-04-23T05:06:37.954Z,94525.00
2023-04-23T05:07:37.959Z,94525.00
2023-04-23T05:08:37.965Z,94523.00
2023-04-23T05:09:37.971Z,94523.00
2023-04-23T05:10:37.985Z,94523.00
2023-04-23T05:11:37.936Z,94521.00
2023-04-23T05:12:37.939Z,94521.00
2023-04-23T05:13:38.014Z,94523.00
2023-04-23T05:14:37.957Z,94523.00
2023-04-23T05:15:37.970Z,94527.00
2023-04-23T05:16:37.991Z,94525.00
2023-04-23T05:17:38.084Z,94529.00
2023-04-23T05:18:38.001Z,94530.00
2023-04-23T05:19:38.002Z,94527.00
2023-04-23T05:20:37.998Z,94529.00
2023-04-23T05:21:37.993Z,94529.00
2023-04-23T05:22:37.998Z,94527.00
2023-04-23T05:23:38.006Z,94527.00
2023-04-23T05:24:37.996Z,94527.00
2023-04-23T05:25:37.992Z,94529.00
2023-04-23T05:26:37.982Z,94529.00
2023-04-23T05:27:37.968Z,94530.00
2023-04-23T05:28:37.985Z,94532.00
2023-04-23T05:29:37.971Z,94532.00
2023-04-23T05:30:38.009Z,94532.00
2023-04-23T05:31:38.001Z,94534.00
2023-04-23T05:32:38.056Z,94536.00
2023-04-23T05:33:49.349Z,94534.00
2023-04-23T05:34:39.256Z,94534.00
2023-04-23T05:35:38.002Z,94534.00
2023-04-23T05:36:37.970Z,94536.00
2023-04-23T05:37:37.953Z,94538.00
2023-04-23T05:38:37.971Z,94538.00
2023-04-23T05:39:37.965Z,94540.00
2023-04-23T05:40:37.925Z,94542.00
2023-04-23T05:41:37.922Z,94542.00
2023-04-23T05:42:37.901Z,94540.00
2023-04-23T05:43:37.944Z,94540.00
2023-04-23T05:44:37.888Z,94538.00
2023-04-23T05:45:37.876Z,94540.00
2023-04-23T05:46:37.944Z,94540.00
2023-04-23T05:47:38.008Z,94542.00
2023-04-23T05:48:37.872Z,94540.00
2023-04-23T05:49:37.873Z,94540.00
2023-04-23T05:50:37.882Z,94542.00
2023-04-23T05:51:37.846Z,94540.00
2023-04-23T05:52:37.887Z,94542.00
2023-04-23T05:53:37.869Z,94540.00
2023-04-23T05:54:37.827Z,94544.00
2023-04-23T05:55:37.809Z,94544.00
2023-04-23T05:56:37.808Z,94542.00
2023-04-23T05:57:37.819Z,94542.00
2023-04-23T05:58:37.817Z,94544.00
2023-04-23T05:59:37.819Z,94542.00
2023-04-23T06:00:37.779Z,94544.00
2023-04-23T06:01:37.769Z,94546.00
2023-04-23T06:02:37.844Z,94548.00
2023-04-23T06:03:38.150Z,94552.00
2023-04-23T06:04:38.052Z,94552.00
2023-04-23T06:05:37.876Z,94550.00
2023-04-23T06:06:37.746Z,94556.00
2023-04-23T06:07:37.748Z,94556.00
2023-04-23T06:08:37.740Z,94554.00
2023-04-23T06:09:37.758Z,94556.00
2023-04-23T06:10:37.738Z,94556.00
2023-04-23T06:11:37.695Z,94554.00
2023-04-23T06:12:37.706Z,94556.00
2023-04-23T06:13:37.688Z,94556.00
2023-04-23T06:14:37.687Z,94554.00
2023-04-23T06:15:37.670Z,94554.00
2023-04-23T06:16:37.694Z,94554.00
2023-04-23T06:17:37.752Z,94554.00
2023-04-23T06:18:37.681Z,94552.00
2023-04-23T06:19:37.685Z,94552.00
2023-04-23T06:20:37.633Z,94554.00
2023-04-23T06:21:37.673Z,94552.00
2023-04-23T06:22:37.642Z,94550.00
2023-04-23T06:23:37.666Z,94552.00
2023-04-23T06:24:37.642Z,94552.00
2023-04-23T06:25:37.651Z,94552.00
2023-04-23T06:26:37.634Z,94552.00
2023-04-23T06:27:37.604Z,94550.00
2023-04-23T06:28:37.622Z,94550.00
2023-04-23T06:29:37.610Z,94548.00
2023-04-23T06:30:37.596Z,94550.00
2023-04-23T06:31:37.811Z,94550.00
2023-04-23T06:32:37.674Z,94550.00
2023-04-23T06:33:37.591Z,94550.00
2023-04-23T06:34:46.799Z,94548.00
2023-04-23T06:35:38.558Z,94550.00
2023-04-23T06:36:37.559Z,94548.00
2023-04-23T06:37:37.521Z,94548.00
2023-04-23T06:38:37.540Z,94548.00
2023-04-23T06:39:37.492Z,94550.00
2023-04-23T06:40:37.520Z,94548.00
2023-04-23T06:41:37.493Z,94550.00
2023-04-23T06:42:37.467Z,94546.00
2023-04-23T06:43:37.516Z,94546.00
2023-04-23T06:44:39.304Z,94546.00
2023-04-23T06:45:37.474Z,94544.00
2023-04-23T06:46:37.535Z,94546.00
2023-04-23T06:47:37.501Z,94546.00
2023-04-23T06:48:37.469Z,94546.00
2023-04-23T06:49:37.482Z,94546.00
2023-04-23T06:50:37.415Z,94544.00
2023-04-23T06:51:37.443Z,94544.00
2023-04-23T06:52:37.431Z,94546.00
2023-04-23T06:53:37.486Z,94544.00
2023-04-23T06:54:37.460Z,94544.00
2023-04-23T06:55:37.430Z,94544.00
2023-04-23T06:56:37.419Z,94544.00
2023-04-23T06:57:37.397Z,94544.00
2023-04-23T06:58:37.403Z,94542.00
2023-04-23T06:59:37.371Z,94540.00
2023-04-23T07:00:37.408Z,94540.00
2023-04-23T07:01:37.473Z,94538.00
2023-04-23T07:02:37.453Z,94538.00
2023-04-23T07:03:37.397Z,94538.00
2023-04-23T07:04:37.401Z,94536.00
2023-04-23T07:05:37.358Z,94538.00
2023-04-23T07:06:37.355Z,94536.00
2023-04-23T07:07:37.342Z,94532.00
2023-04-23T07:08:37.338Z,94534.00
2023-04-23T07:09:37.322Z,94530.00
2023-04-23T07:10:37.318Z,94530.00
2023-04-23T07:11:37.335Z,94530.00
2023-04-23T07:12:37.302Z,94529.00
2023-04-23T07:13:37.339Z,94527.00
2023-04-23T07:14:37.297Z,94525.00
2023-04-23T07:15:37.331Z,94523.00
2023-04-23T07:16:37.342Z,94523.00
2023-04-23T07:17:37.316Z,94521.00
2023-04-23T07:18:37.271Z,94523.00
2023-04-23T07:19:37.263Z,94519.00
2023-04-23T07:20:37.270Z,94519.00
2023-04-23T07:21:37.259Z,94521.00
2023-04-23T07:22:37.252Z,94521.00
2023-04-23T07:23:37.257Z,94519.00
2023-04-23T07:24:37.251Z,94517.00
2023-04-23T07:25:37.244Z,94515.00
2023-04-23T07:26:37.225Z,94511.00
2023-04-23T07:27:37.260Z,94507.00
2023-04-23T07:28:37.192Z,94509.00
2023-04-23T07:29:37.188Z,94509.00
2023-04-23T07:30:37.175Z,94507.00
2023-04-23T07:31:37.327Z,94509.00
2023-04-23T07:32:37.268Z,94507.00
2023-04-23T07:33:37.199Z,94507.00
2023-04-23T07:34:38.086Z,94507.00
2023-04-23T07:35:37.143Z,94507.00
2023-04-23T07:36:37.159Z,94509.00
2023-04-23T07:37:37.150Z,94507.00
2023-04-23T07:38:37.114Z,94507.00
2023-04-23T07:39:37.143Z,94507.00
2023-04-23T07:40:37.154Z,94505.00
2023-04-23T07:41:37.148Z,94503.00
2023-04-23T07:42:37.147Z,94503.00
2023-04-23T07:43:37.185Z,94499.00
2023-04-23T07:44:37.204Z,94499.00
2023-04-23T07:45:37.177Z,94501.00
2023-04-23T07:46:37.203Z,94501.00
2023-04-23T07:47:37.297Z,94501.00
2023-04-23T07:48:37.239Z,94501.00
2023-04-23T07:49:37.261Z,94499.00
2023-04-23T07:50:37.320Z,94499.00
2023-04-23T07:51:37.251Z,94499.00
2023-04-23T07:52:37.267Z,94497.00
2023-04-23T07:53:37.315Z,94495.00
2023-04-23T07:54:37.316Z,94493.00
2023-04-23T07:55:37.282Z,94499.00
2023-04-23T07:56:37.365Z,94497.00
2023-04-23T07:57:37.383Z,94499.00
2023-04-23T07:58:37.399Z,94497.00
2023-04-23T07:59:37.375Z,94495.00
2023-04-23T08:00:37.402Z,94493.00
2023-04-23T08:01:37.424Z,94495.00
2023-04-23T08:02:37.557Z,94493.00
2023-04-23T08:03:37.704Z,94493.00
2023-04-23T08:04:37.706Z,94495.00
2023-04-23T08:05:37.621Z,94491.00
2023-04-23T08:06:37.554Z,94491.00
2023-04-23T08:07:37.566Z,94489.00
2023-04-23T08:08:37.593Z,94489.00
2023-04-23T08:09:37.606Z,94485.00
2023-04-23T08:10:37.724Z,94483.00
2023-04-23T08:11:37.662Z,94482.00
2023-04-23T08:12:37.714Z,94480.00
2023-04-23T08:13:37.738Z,94478.00
2023-04-23T08:14:37.722Z,94474.00
2023-04-23T08:15:37.899Z,94470.00
2023-04-23T08:16:39.081Z,94470.00
2023-04-23T08:17:37.853Z,94466.00
2023-04-23T08:18:37.887Z,94470.00
2023-04-23T08:19:37.862Z,94466.00
2023-04-23T08:20:37.913Z,94468.00
2023-04-23T08:21:37.925Z,94468.00
2023-04-23T08:22:37.977Z,94464.00
2023-04-23T08:23:38.009Z,94462.00
2023-04-23T08:24:38.022Z,94458.00
2023-04-23T08:25:38.043Z,94458.00
2023-04-23T08:26:38.060Z,94458.00
2023-04-23T08:27:38.130Z,94456.00
2023-04-23T08:28:38.151Z,94456.00
2023-04-23T08:29:38.193Z,94456.00
2023-04-23T08:30:38.176Z,94454.00
2023-04-23T08:31:38.259Z,94452.00
2023-04-23T08:32:38.251Z,94450.00
2023-04-23T08:33:38.312Z,94448.00
2023-04-23T08:34:38.298Z,94446.00
2023-04-23T08:35:38.306Z,94446.00
2023-04-23T08:36:38.333Z,94444.00
2023-04-23T08:37:38.321Z,94442.00
2023-04-23T08:38:38.374Z,94442.00
2023-04-23T08:39:39.015Z,94438.00
2023-04-23T08:40:38.443Z,94438.00
2023-04-23T08:41:38.464Z,94438.00
2023-04-23T08:42:38.471Z,94434.00
2023-04-23T08:43:38.539Z,94432.00
2023-04-23T08:44:38.556Z,94432.00
2023-04-23T08:45:38.697Z,94430.00
2023-04-23T08:46:38.948Z,94434.00
2023-04-23T08:47:38.667Z,94432.00
2023-04-23T08:48:38.657Z,94432.00
2023-04-23T08:49:38.673Z,94434.00
2023-04-23T08:50:38.728Z,94432.00
2023-04-23T08:51:38.780Z,94436.00
2023-04-23T08:52:38.764Z,94436.00
2023-04-23T08:53:39.963Z,94436.00
2023-04-23T08:54:38.836Z,94434.00
2023-04-23T08:55:38.860Z,94434.00
2023-04-23T08:56:38.868Z,94432.00
2023-04-23T08:57:38.957Z,94430.00
2023-04-23T08:58:38.977Z,94430.00
2023-04-23T08:59:39.018Z,94427.00
2023-04-23T09:00:39.111Z,94423.00
2023-04-23T09:01:39.168Z,94423.00
2023-04-23T09:02:39.250Z,94425.00
2023-04-23T09:03:39.290Z,94425.00
2023-04-23T09:04:39.229Z,94425.00
2023-04-23T09:05:39.284Z,94427.00
2023-04-23T09:06:39.336Z,94425.00
2023-04-23T09:07:39.360Z,94425.00
2023-04-23T09:08:39.416Z,94425.00
2023-04-23T09:09:39.687Z,94421.00
2023-04-23T09:10:39.540Z,94419.00
2023-04-23T09:11:39.569Z,94417.00
2023-04-23T09:12:39.591Z,94415.00
2023-04-23T09:13:39.705Z,94415.00
2023-04-23T09:14:39.813Z,94415.00
2023-04-23T09:15:39.780Z,94413.00
2023-04-23T09:16:39.852Z,94413.00
2023-04-23T09:17:40.964Z,94413.00
2023-04-23T09:18:39.996Z,94409.00
2023-04-23T09:19:40.351Z,94405.00
2023-04-23T09:20:40.087Z,94405.00
2023-04-23T09:21:40.132Z,94403.00
2023-04-23T09:22:40.213Z,94403.00
2023-04-23T09:23:40.240Z,94403.00
2023-04-23T09:24:40.490Z,94399.00
2023-04-23T09:25:40.367Z,94391.00
2023-04-23T09:26:41.280Z,94391.00
2023-04-23T09:27:40.495Z,94393.00
2023-04-23T09:28:40.537Z,94389.00
2023-04-23T09:29:40.758Z,94387.00
2023-04-23T09:30:40.647Z,94387.00
2023-04-23T09:31:40.762Z,94383.00
2023-04-23T09:32:40.825Z,94381.00
2023-04-23T09:33:40.883Z,94372.00
2023-04-23T09:34:40.890Z,94372.00
2023-04-23T09:35:40.973Z,94374.00
2023-04-23T09:36:41.005Z,94370.00
2023-04-23T09:37:41.082Z,94368.00
2023-04-23T09:38:41.129Z,94368.00
2023-04-23T09:39:41.424Z,94364.00
2023-04-23T09:40:41.244Z,94370.00
2023-04-23T09:41:41.310Z,94366.00
2023-04-23T09:42:41.342Z,94366.00
2023-04-23T09:43:41.402Z,94366.00
2023-04-23T09:44:41.453Z,94360.00
2023-04-23T09:45:41.556Z,94364.00
2023-04-23T09:46:41.623Z,94358.00
2023-04-23T09:47:41.670Z,94358.00
2023-04-23T09:48:41.666Z,94356.00
2023-04-23T09:49:42.084Z,94354.00
2023-04-23T09:50:41.774Z,94356.00
2023-04-23T09:51:41.834Z,94352.00
2023-04-23T09:52:41.869Z,94354.00
2023-04-23T09:53:41.926Z,94352.00
2023-04-23T09:54:41.983Z,94354.00
2023-04-23T09:55:42.052Z,94352.00
2023-04-23T09:56:42.044Z,94350.00
2023-04-23T09:57:42.123Z,94348.00
2023-04-23T09:58:42.168Z,94350.00
2023-04-23T09:59:48.759Z,94346.00
2023-04-23T10:00:43.168Z,94346.00
2023-04-23T10:01:42.220Z,94342.00
2023-04-23T10:02:42.263Z,94342.00
2023-04-23T10:03:42.515Z,94336.00
2023-04-23T10:04:42.632Z,94335.00
2023-04-23T10:05:56.288Z,94335.00
2023-04-23T10:06:50.062Z,94331.00
2023-04-23T10:07:43.143Z,94333.00
2023-04-23T10:08:42.157Z,94331.00
2023-04-23T10:09:42.315Z,94335.00
2023-04-23T10:11:42.107Z,94331.00
2023-04-23T10:13:42.141Z,94331.00
2023-04-23T10:14:42.111Z,94331.00
2023-04-23T10:15:42.171Z,94329.00
2023-04-23T10:16:48.676Z,94327.00
2023-04-23T10:17:43.208Z,94327.00
2023-04-23T10:18:42.168Z,94327.00
2023-04-23T10:19:42.312Z,94323.00
2023-04-23T10:20:42.144Z,94319.00
2023-04-23T10:21:53.319Z,94319.00
2023-04-23T10:22:43.130Z,94317.00
2023-04-23T10:23:42.131Z,94315.00
2023-04-23T10:24:42.100Z,94317.00
2023-04-23T10:25:42.099Z,94315.00
2023-04-23T10:26:42.097Z,94309.00
2023-04-23T10:27:51.835Z,94307.00
2023-04-23T10:28:43.095Z,94309.00
2023-04-23T10:29:42.348Z,94305.00
2023-04-23T10:30:42.076Z,94305.00
2023-04-23T10:31:42.893Z,94301.00
2023-04-23T10:32:42.112Z,94299.00
2023-04-23T10:33:49.799Z,94297.00
2023-04-23T10:34:43.075Z,94297.00
2023-04-23T10:35:42.057Z,94291.00
2023-04-23T10:36:42.030Z,94289.00
2023-04-23T10:37:42.055Z,94288.00
2023-04-23T10:38:51.359Z,94286.00
2023-04-23T10:39:43.011Z,94284.00
2023-04-23T10:40:42.013Z,94282.00
2023-04-23T10:41:41.977Z,94280.00
2023-04-23T10:42:41.982Z,94278.00
2023-04-23T10:43:41.997Z,94282.00
2023-04-23T10:45:41.961Z,94280.00
2023-04-23T10:46:41.955Z,94274.00
2023-04-23T10:47:42.016Z,94272.00
2023-04-23T10:48:41.969Z,94274.00
2023-04-23T10:49:42.184Z,94272.00
2023-04-23T10:51:02.088Z,94268.00
2023-04-23T10:52:41.947Z,94262.00
2023-04-23T10:53:41.938Z,94258.00
2023-04-23T10:54:41.910Z,94258.00
2023-04-23T10:55:41.891Z,94252.00
2023-04-23T10:56:41.910Z,94250.00
2023-04-23T10:57:41.904Z,94248.00
2023-04-23T10:58:41.883Z,94246.00
2023-04-23T10:59:42.096Z,94244.00
2023-04-23T11:00:41.952Z,94242.00
2023-04-23T11:01:41.888Z,94244.00
2023-04-23T11:02:42.007Z,94242.00
2023-04-23T11:03:44.053Z,94238.00
2023-04-23T11:04:41.961Z,94237.00
2023-04-23T11:05:41.851Z,94233.00
2023-04-23T11:06:41.832Z,94235.00
2023-04-23T11:07:41.836Z,94233.00
2023-04-23T11:08:41.827Z,94227.00
2023-04-23T11:09:42.059Z,94233.00
2023-04-23T11:10:41.797Z,94225.00
2023-04-23T11:11:41.765Z,94223.00
2023-04-23T11:12:41.788Z,94221.00
2023-04-23T11:13:41.789Z,94221.00
2023-04-23T11:14:41.805Z,94217.00
2023-04-23T11:15:41.782Z,94217.00
2023-04-23T11:16:41.787Z,94215.00
2023-04-23T11:17:41.774Z,94215.00
2023-04-23T11:18:41.754Z,94213.00
2023-04-23T11:19:42.015Z,94211.00
2023-04-23T11:20:41.770Z,94205.00
2023-04-23T11:21:41.712Z,94207.00
2023-04-23T11:22:41.698Z,94201.00
2023-04-23T11:23:41.741Z,94201.00
2023-04-23T11:24:41.721Z,94201.00
2023-04-23T11:25:41.674Z,94199.00
2023-04-23T11:26:41.685Z,94195.00
2023-04-23T11:27:41.701Z,94195.00
2023-04-23T11:28:41.667Z,94197.00
2023-04-23T11:29:41.813Z,94197.00
2023-04-23T11:30:41.651Z,94187.00
2023-04-23T11:31:50.828Z,94193.00
2023-04-23T11:32:42.829Z,94189.00
2023-04-23T11:33:41.625Z,94187.00
2023-04-23T11:34:41.657Z,94191.00
2023-04-23T11:35:41.621Z,94189.00
2023-04-23T11:36:41.625Z,94186.00
2023-04-23T11:37:41.642Z,94189.00
2023-04-23T11:38:41.589Z,94186.00
2023-04-23T11:39:42.288Z,94184.00
2023-04-23T11:40:41.595Z,94184.00
2023-04-23T11:41:41.592Z,94184.00
2023-04-23T11:42:41.581Z,94178.00
2023-04-23T11:43:41.581Z,94174.00
2023-04-23T11:44:41.584Z,94174.00
2023-04-23T11:45:41.567Z,94170.00
2023-04-23T11:46:41.587Z,94172.00
2023-04-23T11:47:41.558Z,94166.00
2023-04-23T11:48:41.533Z,94160.00